Time;durP1;ratioP1;P1;durP2;ratioP2;P2;SDS_P1;SDS_P2;PMS_P1;PMS_P2;Temp;Humidity;BMP_temperature;BMP_pressure;BME280_temperature;BME280_humidity;BME280_pressure;Samples;Min_cycle;Max_cycle;Signal;HPM_P1;HPM_P2
2021/10/21 00:01:18;;;;;;;11.80;6.25;;;11.20;99.90;;;;;;5067081;28;20185;-73
2021/10/21 00:03:44;;;;;;;12.45;7.88;;;12.90;99.90;;;;;;5079938;28;20170;-75
2021/10/21 00:06:10;;;;;;;10.50;6.07;;;13.00;99.90;;;;;;5084429;28;20180;-75
2021/10/21 00:08:36;;;;;;;10.60;5.93;;;13.10;99.90;;;;;;5067502;28;20165;-74
2021/10/21 00:11:01;;;;;;;8.65;5.85;;;13.80;99.90;;;;;;5066974;28;20193;-74
2021/10/21 00:13:28;;;;;;;7.40;4.90;;;14.30;99.90;;;;;;5065705;28;20188;-74
2021/10/21 00:15:53;;;;;;;7.60;5.10;;;14.50;99.90;;;;;;5068449;28;20157;-74
2021/10/21 00:18:19;;;;;;;6.93;4.45;;;14.60;99.90;;;;;;5069140;28;20169;-75
2021/10/21 00:20:45;;;;;;;9.10;5.00;;;14.70;99.90;;;;;;5070378;28;20196;-75
2021/10/21 00:23:11;;;;;;;6.72;4.18;;;14.80;99.90;;;;;;5068956;28;20203;-74
2021/10/21 00:25:37;;;;;;;9.00;5.15;;;14.80;99.90;;;;;;5070744;28;20188;-74
2021/10/21 00:28:03;;;;;;;7.60;4.97;;;14.90;99.90;;;;;;5069233;28;20191;-74
2021/10/21 00:30:29;;;;;;;12.50;7.90;;;14.70;99.90;;;;;;5070269;28;20218;-74
2021/10/21 00:32:55;;;;;;;11.93;8.15;;;13.90;99.90;;;;;;5070538;28;20244;-74
2021/10/21 00:35:21;;;;;;;12.32;8.05;;;13.30;99.90;;;;;;5070344;28;20184;-74
2021/10/21 00:37:46;;;;;;;12.77;8.02;;;12.60;99.90;;;;;;5068815;28;20179;-75
2021/10/21 00:40:12;;;;;;;11.73;8.85;;;12.30;99.90;;;;;;5070323;28;20169;-74
2021/10/21 00:42:38;;;;;;;12.80;8.65;;;12.00;99.90;;;;;;5070178;28;20218;-74
2021/10/21 00:45:05;;;;;;;14.98;8.30;;;11.80;99.90;;;;;;5070169;28;20164;-74
2021/10/21 00:47:31;;;;;;;13.85;8.52;;;11.70;99.90;;;;;;5070286;28;20221;-74
2021/10/21 00:49:56;;;;;;;12.07;8.55;;;11.60;99.90;;;;;;5068719;28;20176;-75
2021/10/21 00:52:24;;;;;;;14.25;9.13;;;11.50;99.90;;;;;;5068613;28;20193;-74
2021/10/21 00:54:52;;;;;;;12.73;8.25;;;11.40;99.90;;;;;;5068350;28;20239;-75
2021/10/21 00:57:19;;;;;;;13.40;9.05;;;11.40;99.90;;;;;;5068575;28;20561;-74
2021/10/21 00:59:46;;;;;;;14.00;8.30;;;11.40;99.90;;;;;;5069806;28;20219;-75
2021/10/21 01:02:13;;;;;;;12.52;8.43;;;11.40;99.90;;;;;;5069666;28;20211;-74
2021/10/21 01:04:42;;;;;;;14.00;8.05;;;11.30;99.90;;;;;;5067948;28;20183;-74
2021/10/21 01:07:08;;;;;;;15.90;9.05;;;11.40;99.90;;;;;;5069708;28;20157;-74
2021/10/21 01:09:35;;;;;;;10.18;6.78;;;11.40;99.90;;;;;;5069597;28;20192;-74
2021/10/21 01:12:03;;;;;;;10.15;6.50;;;11.70;99.90;;;;;;5068185;28;20203;-74
2021/10/21 01:14:28;;;;;;;10.45;6.38;;;12.00;99.90;;;;;;5069551;28;20231;-75
2021/10/21 01:16:54;;;;;;;14.93;6.85;;;12.50;99.90;;;;;;5069650;28;20172;-75
2021/10/21 01:19:23;;;;;;;11.35;6.50;;;12.50;99.90;;;;;;5068260;28;20677;-75
2021/10/21 01:21:52;;;;;;;8.23;5.35;;;12.70;99.90;;;;;;5068171;28;20204;-75
2021/10/21 01:24:19;;;;;;;8.80;5.85;;;12.70;99.90;;;;;;5069719;28;20149;-76
2021/10/21 01:26:47;;;;;;;10.00;5.88;;;12.60;99.90;;;;;;5069204;28;20157;-75
2021/10/21 01:29:15;;;;;;;9.70;4.97;;;12.60;99.90;;;;;;5069388;28;20600;-75
2021/10/21 01:31:41;;;;;;;8.77;6.10;;;12.50;99.90;;;;;;5069615;28;20184;-75
2021/10/21 01:34:08;;;;;;;12.63;5.40;;;12.40;99.90;;;;;;5069298;28;20168;-75
2021/10/21 01:36:36;;;;;;;9.70;5.85;;;12.30;99.90;;;;;;5067753;28;20165;-75
2021/10/21 01:39:07;;;;;;;9.88;5.25;;;12.10;99.90;;;;;;5067819;28;20204;-75
2021/10/21 01:41:33;;;;;;;7.85;5.28;;;12.00;99.90;;;;;;5067784;28;20196;-75
2021/10/21 01:44:00;;;;;;;8.40;5.43;;;11.90;99.90;;;;;;5067853;28;20332;-75
2021/10/21 01:46:27;;;;;;;8.85;5.72;;;11.90;99.90;;;;;;5069249;28;20660;-75
2021/10/21 01:48:53;;;;;;;11.07;5.90;;;11.90;99.90;;;;;;5066941;28;20219;-75
2021/10/21 01:51:19;;;;;;;9.48;6.03;;;12.10;99.90;;;;;;5067668;28;20671;-75
2021/10/21 01:53:44;;;;;;;9.10;6.22;;;12.30;99.90;;;;;;5067466;28;20315;-75
2021/10/21 01:56:10;;;;;;;7.18;5.47;;;12.80;99.90;;;;;;5067804;28;20574;-75
2021/10/21 01:58:36;;;;;;;8.43;5.18;;;12.80;99.90;;;;;;5068834;28;20189;-75
2021/10/21 02:01:03;;;;;;;8.50;5.50;;;12.60;99.90;;;;;;5067519;28;20180;-75
2021/10/21 02:03:30;;;;;;;9.20;5.05;;;12.50;99.90;;;;;;5067392;28;20184;-75
2021/10/21 02:05:56;;;;;;;7.43;4.53;;;12.50;99.90;;;;;;5067431;28;20602;-75
2021/10/21 02:08:22;;;;;;;9.68;5.85;;;12.50;99.90;;;;;;5068667;28;20153;-76
2021/10/21 02:10:48;;;;;;;7.38;5.00;;;12.50;99.90;;;;;;5068556;28;20187;-75
2021/10/21 02:13:14;;;;;;;9.15;5.65;;;12.30;99.90;;;;;;5067166;28;20169;-75
2021/10/21 02:15:41;;;;;;;11.45;6.10;;;12.30;99.90;;;;;;5068543;28;20160;-76
2021/10/21 02:18:07;;;;;;;10.35;5.57;;;12.50;99.90;;;;;;5067192;28;20280;-76
2021/10/21 02:20:33;;;;;;;9.65;6.47;;;12.70;99.90;;;;;;5068398;28;20169;-75
2021/10/21 02:22:59;;;;;;;9.38;6.05;;;12.70;99.90;;;;;;5068498;28;20259;-76
2021/10/21 02:25:26;;;;;;;8.57;6.22;;;12.80;99.90;;;;;;5066908;28;20173;-75
2021/10/21 02:27:52;;;;;;;9.70;5.88;;;12.80;99.90;;;;;;5068222;28;20238;-75
2021/10/21 02:30:19;;;;;;;9.95;6.50;;;12.90;99.90;;;;;;5068297;28;20219;-76
2021/10/21 02:32:46;;;;;;;12.65;6.43;;;12.90;99.90;;;;;;5068303;28;20161;-75
2021/10/21 02:35:12;;;;;;;8.63;5.82;;;12.80;99.90;;;;;;5066899;28;20232;-74
2021/10/21 02:37:40;;;;;;;9.82;5.65;;;12.50;99.90;;;;;;5066169;28;20279;-74
2021/10/21 02:40:09;;;;;;;11.32;6.47;;;12.30;99.90;;;;;;5066504;28;20293;-74
2021/10/21 02:42:35;;;;;;;12.80;7.43;;;12.20;99.90;;;;;;5058456;28;20193;-74
2021/10/21 02:45:05;;;;;;;10.38;6.57;;;12.00;99.90;;;;;;5046880;28;20239;-74
2021/10/21 02:47:31;;;;;;;11.40;6.45;;;12.20;99.90;;;;;;5046860;28;20161;-73
2021/10/21 02:49:57;;;;;;;11.27;6.13;;;12.20;99.90;;;;;;5047658;28;20327;-73
2021/10/21 02:52:23;;;;;;;10.32;6.25;;;12.10;99.90;;;;;;5046569;28;20205;-76
2021/10/21 02:54:49;;;;;;;12.07;6.30;;;12.00;99.90;;;;;;5046566;28;20324;-74
2021/10/21 02:57:15;;;;;;;11.95;6.20;;;11.80;99.90;;;;;;5046626;28;20172;-75
2021/10/21 02:59:40;;;;;;;10.95;5.53;;;11.70;99.90;;;;;;5047950;28;20204;-74
2021/10/21 03:02:07;;;;;;;13.18;6.22;;;11.60;99.90;;;;;;5046487;28;20577;-73
2021/10/21 03:04:33;;;;;;;7.38;4.45;;;11.60;99.90;;;;;;5046668;28;20184;-73
2021/10/21 03:06:59;;;;;;;10.13;5.30;;;11.50;99.90;;;;;;5047825;28;20172;-74
2021/10/21 03:09:25;;;;;;;6.93;4.82;;;11.40;99.90;;;;;;5046460;28;20256;-74
2021/10/21 03:11:51;;;;;;;8.82;4.80;;;11.40;99.90;;;;;;5046569;28;20216;-74
2021/10/21 03:14:17;;;;;;;6.85;4.40;;;11.30;99.90;;;;;;5048009;28;20216;-77
2021/10/21 03:16:43;;;;;;;8.48;5.05;;;11.20;99.90;;;;;;5048077;28;20177;-76
2021/10/21 03:19:09;;;;;;;8.23;5.32;;;11.20;99.90;;;;;;5048212;28;20192;-76
2021/10/21 03:21:35;;;;;;;8.45;5.55;;;11.10;99.90;;;;;;5047766;28;20209;-77
2021/10/21 03:24:01;;;;;;;8.77;5.10;;;11.00;99.90;;;;;;5047826;28;20217;-74
2021/10/21 03:26:27;;;;;;;8.05;4.97;;;11.00;99.90;;;;;;5047857;28;20207;-75
2021/10/21 03:28:53;;;;;;;7.63;4.40;;;10.90;99.90;;;;;;5046535;28;20579;-75
2021/10/21 03:31:19;;;;;;;9.05;4.70;;;10.80;99.90;;;;;;5047628;28;20213;-74
2021/10/21 03:33:46;;;;;;;6.93;4.18;;;10.70;99.90;;;;;;5047724;28;20161;-74
2021/10/21 03:36:12;;;;;;;11.63;4.68;;;10.70;99.90;;;;;;5047640;28;20169;-74
2021/10/21 03:38:38;;;;;;;11.10;5.20;;;10.70;99.90;;;;;;5047727;28;20162;-75
2021/10/21 03:41:05;;;;;;;7.45;4.40;;;10.60;99.90;;;;;;5047599;28;20197;-75
2021/10/21 03:43:31;;;;;;;9.07;4.47;;;10.60;99.90;;;;;;5062863;28;20200;-75
2021/10/21 03:45:57;;;;;;;12.00;4.82;;;10.60;99.90;;;;;;5046222;28;20694;-76
2021/10/21 03:48:23;;;;;;;6.97;5.63;;;10.60;99.90;;;;;;5047636;28;20173;-76
2021/10/21 03:50:49;;;;;;;9.40;5.53;;;10.60;99.90;;;;;;5049218;28;20193;-75
2021/10/21 03:53:15;;;;;;;6.72;4.45;;;10.60;99.90;;;;;;5045207;28;20226;-75
2021/10/21 03:55:41;;;;;;;7.65;5.00;;;10.70;99.90;;;;;;5030010;28;20186;-75
2021/10/21 03:58:09;;;;;;;8.07;4.80;;;10.70;99.90;;;;;;5013539;28;20272;-74
2021/10/21 04:00:35;;;;;;;9.32;4.60;;;10.70;99.90;;;;;;5031257;28;20262;-75
2021/10/21 04:03:02;;;;;;;7.65;4.57;;;10.60;99.90;;;;;;5031412;28;20194;-77
2021/10/21 04:05:28;;;;;;;12.63;4.45;;;10.60;99.90;;;;;;5031382;28;20182;-74
2021/10/21 04:07:54;;;;;;;7.63;5.40;;;10.70;99.90;;;;;;5013409;28;20178;-74
2021/10/21 04:10:20;;;;;;;9.18;5.00;;;10.70;99.90;;;;;;5031317;28;20204;-74
2021/10/21 04:12:46;;;;;;;9.85;4.70;;;10.70;99.90;;;;;;5013471;28;20182;-73
2021/10/21 04:15:12;;;;;;;8.15;4.85;;;10.70;99.90;;;;;;5013320;28;20182;-74
2021/10/21 04:17:39;;;;;;;7.97;4.60;;;10.70;99.90;;;;;;5029798;28;20689;-74
2021/10/21 04:20:05;;;;;;;7.82;4.43;;;10.70;99.90;;;;;;5030920;28;20162;-75
2021/10/21 04:22:32;;;;;;;11.30;3.90;;;10.70;99.90;;;;;;5031060;28;20580;-75
2021/10/21 04:24:58;;;;;;;8.52;5.10;;;10.60;99.90;;;;;;5029700;28;20170;-75
2021/10/21 04:27:24;;;;;;;9.02;4.75;;;10.70;99.90;;;;;;5030925;28;20220;-74
2021/10/21 04:29:50;;;;;;;8.98;4.90;;;10.70;99.90;;;;;;5030811;28;20162;-74
2021/10/21 04:32:16;;;;;;;7.20;5.25;;;10.80;99.90;;;;;;5030710;28;20200;-75
2021/10/21 04:34:42;;;;;;;8.65;4.10;;;10.90;99.90;;;;;;5030718;28;20662;-74
2021/10/21 04:37:08;;;;;;;6.35;4.50;;;10.80;99.90;;;;;;5030826;28;20158;-75
2021/10/21 04:39:34;;;;;;;6.05;3.92;;;10.80;99.90;;;;;;5029172;28;20193;-75
2021/10/21 04:42:00;;;;;;;6.78;3.85;;;10.90;99.90;;;;;;5012850;28;20205;-74
2021/10/21 04:44:26;;;;;;;11.32;5.13;;;10.80;99.90;;;;;;5030538;28;20170;-74
2021/10/21 04:46:52;;;;;;;8.70;4.85;;;10.90;99.90;;;;;;5030460;28;20236;-74
2021/10/21 04:49:18;;;;;;;7.68;4.90;;;10.80;99.90;;;;;;5028949;28;20200;-74
2021/10/21 04:51:44;;;;;;;6.47;4.15;;;10.90;99.90;;;;;;5028906;28;20607;-74
2021/10/21 04:54:10;;;;;;;9.93;5.30;;;10.80;99.90;;;;;;5030188;28;20236;-75
2021/10/21 04:56:36;;;;;;;7.55;4.85;;;10.80;99.90;;;;;;5030086;28;20173;-75
2021/10/21 04:59:02;;;;;;;10.10;5.53;;;10.90;99.90;;;;;;5030256;28;20166;-74
2021/10/21 05:01:28;;;;;;;11.63;5.43;;;10.90;99.90;;;;;;5029310;28;20659;-75
2021/10/21 05:03:54;;;;;;;13.10;4.65;;;10.90;99.90;;;;;;5012474;28;20201;-74
2021/10/21 05:06:20;;;;;;;9.48;4.47;;;10.80;99.90;;;;;;5030160;28;20174;-74
2021/10/21 05:08:46;;;;;;;9.52;4.88;;;10.80;99.90;;;;;;5029814;28;20163;-73
2021/10/21 05:11:12;;;;;;;9.50;4.90;;;10.80;99.90;;;;;;5027884;28;20194;-74
2021/10/21 05:13:38;;;;;;;10.15;5.22;;;10.70;99.90;;;;;;5029824;28;20162;-73
2021/10/21 05:16:04;;;;;;;12.18;6.07;;;10.80;99.90;;;;;;5029660;28;20209;-74
2021/10/21 05:18:30;;;;;;;9.02;4.25;;;10.80;99.90;;;;;;5029827;28;20265;-74
2021/10/21 05:20:56;;;;;;;11.57;5.70;;;10.70;99.90;;;;;;5029586;28;20197;-74
2021/10/21 05:23:22;;;;;;;9.68;5.60;;;10.60;99.90;;;;;;5028061;28;20261;-74
2021/10/21 05:25:49;;;;;;;12.82;5.30;;;10.60;99.90;;;;;;5028361;28;20615;-75
2021/10/21 05:28:15;;;;;;;7.68;4.80;;;10.70;99.90;;;;;;5029576;28;20162;-75
2021/10/21 05:30:41;;;;;;;8.98;5.28;;;10.80;99.90;;;;;;5029365;28;20194;-74
2021/10/21 05:33:07;;;;;;;14.85;6.13;;;10.80;99.90;;;;;;5027990;28;20237;-75
2021/10/21 05:35:33;;;;;;;11.65;6.57;;;10.60;99.90;;;;;;5029159;28;20176;-74
2021/10/21 05:37:59;;;;;;;12.30;6.50;;;10.70;99.90;;;;;;5029468;28;20170;-74
2021/10/21 05:40:26;;;;;;;14.40;5.97;;;10.80;99.90;;;;;;5029319;28;20189;-75
2021/10/21 05:42:53;;;;;;;9.95;5.22;;;10.70;99.90;;;;;;5029182;28;20213;-75
2021/10/21 05:45:20;;;;;;;9.95;4.72;;;10.80;99.90;;;;;;5029079;28;20181;-75
2021/10/21 05:47:46;;;;;;;8.65;4.72;;;10.80;99.90;;;;;;5011470;28;20162;-76
2021/10/21 05:50:13;;;;;;;11.60;5.95;;;10.70;99.90;;;;;;5028861;28;20233;-75
2021/10/21 05:52:39;;;;;;;16.88;5.03;;;10.60;99.90;;;;;;5029041;28;20166;-75
2021/10/21 05:55:06;;;;;;;13.18;4.70;;;10.60;99.90;;;;;;5011487;28;20182;-75
2021/10/21 05:57:33;;;;;;;11.85;5.63;;;10.60;99.90;;;;;;5011368;28;20196;-75
2021/10/21 05:59:59;;;;;;;11.20;4.28;;;10.60;99.90;;;;;;5028981;28;20254;-75
2021/10/21 06:02:25;;;;;;;14.65;5.13;;;10.80;99.90;;;;;;5028666;28;20185;-75
2021/10/21 06:04:51;;;;;;;19.50;5.13;;;10.90;99.90;;;;;;5028826;28;20177;-75
2021/10/21 06:07:17;;;;;;;9.52;4.75;;;11.00;99.90;;;;;;5027308;28;20605;-75
2021/10/21 06:09:44;;;;;;;7.50;2.55;;;11.20;99.90;;;;;;5010642;28;20228;-77
2021/10/21 06:12:10;;;;;;;3.40;1.83;;;12.90;99.90;;;;;;5027008;28;20198;-77
2021/10/21 06:14:36;;;;;;;1.98;1.33;;;15.00;99.90;;;;;;5026745;28;20178;-78
2021/10/21 06:17:02;;;;;;;3.30;1.63;;;15.70;99.90;;;;;;5010983;28;20187;-79
2021/10/21 06:19:28;;;;;;;2.08;1.48;;;16.00;99.90;;;;;;5028679;28;20245;-81
2021/10/21 06:21:58;;;;;;;1.70;1.30;;;16.30;99.90;;;;;;5028664;28;20202;-79
2021/10/21 06:24:25;;;;;;;2.10;1.55;;;16.40;99.90;;;;;;5028710;28;20162;-75
2021/10/21 06:26:51;;;;;;;2.45;1.30;;;16.40;99.90;;;;;;5011089;28;20170;-75
2021/10/21 06:29:17;;;;;;;2.45;1.25;;;16.90;99.90;;;;;;5010448;28;20296;-74
2021/10/21 06:31:46;;;;;;;1.52;1.25;;;17.00;99.90;;;;;;5028406;28;20201;-73
2021/10/21 06:34:12;;;;;;;1.88;1.27;;;17.00;99.90;;;;;;5010583;28;20191;-73
2021/10/21 06:36:38;;;;;;;1.85;1.30;;;17.10;99.90;;;;;;5028382;28;20276;-74
2021/10/21 06:39:05;;;;;;;4.30;1.30;;;17.20;99.90;;;;;;5028065;28;20166;-73
2021/10/21 06:41:31;;;;;;;1.73;1.48;;;17.20;99.90;;;;;;5013517;28;20198;-74
2021/10/21 06:43:57;;;;;;;6.40;2.05;;;17.20;99.90;;;;;;5027828;28;20205;-75
2021/10/21 06:46:23;;;;;;;3.70;1.25;;;17.40;99.90;;;;;;5010344;28;20170;-74
2021/10/21 06:48:49;;;;;;;1.58;1.48;;;17.30;99.90;;;;;;5010155;28;20233;-74
2021/10/21 06:51:15;;;;;;;1.83;1.58;;;17.20;99.90;;;;;;5028153;28;20186;-74
2021/10/21 06:53:41;;;;;;;1.83;1.35;;;17.20;99.90;;;;;;5027645;28;20217;-73
2021/10/21 06:56:07;;;;;;;3.53;1.23;;;17.20;99.90;;;;;;5028038;28;20176;-74
2021/10/21 06:58:33;;;;;;;3.17;1.48;;;17.30;99.90;;;;;;5010323;28;20177;-74
2021/10/21 07:01:00;;;;;;;2.30;1.25;;;17.40;99.90;;;;;;5025942;28;20243;-73
2021/10/21 07:03:26;;;;;;;2.05;1.40;;;17.40;99.90;;;;;;5025636;28;20193;-74
2021/10/21 07:05:53;;;;;;;1.92;1.33;;;17.40;99.90;;;;;;5025069;28;20189;-76
2021/10/21 07:08:20;;;;;;;1.90;1.40;;;17.40;99.90;;;;;;5025314;28;20166;-76
2021/10/21 07:10:47;;;;;;;1.92;1.40;;;17.50;99.90;;;;;;5025365;28;20221;-76
2021/10/21 07:13:13;;;;;;;2.55;1.20;;;17.60;99.90;;;;;;5025215;28;20169;-75
2021/10/21 07:15:39;;;;;;;2.72;1.30;;;17.60;99.90;;;;;;5025611;28;20253;-76
2021/10/21 07:18:05;;;;;;;1.88;1.42;;;17.60;99.90;;;;;;5007958;28;20177;-76
2021/10/21 07:20:31;;;;;;;3.35;1.90;;;17.50;99.90;;;;;;5009984;28;20197;-74
2021/10/21 07:22:57;;;;;;;2.78;1.60;;;17.50;99.90;;;;;;5027828;28;20196;-75
2021/10/21 07:25:27;;;;;;;4.68;1.45;;;17.50;99.90;;;;;;5030430;28;20166;-75
2021/10/21 07:27:57;;;;;;;1.75;1.65;;;17.40;99.90;;;;;;5014087;28;20540;-75
2021/10/21 07:30:26;;;;;;;5.88;1.48;;;17.40;99.90;;;;;;5014070;28;20253;-75
2021/10/21 07:32:52;;;;;;;1.92;1.55;;;17.50;99.90;;;;;;5013996;28;20178;-76
2021/10/21 07:35:18;;;;;;;4.82;1.80;;;17.70;99.90;;;;;;5014033;28;20209;-75
2021/10/21 07:37:44;;;;;;;6.63;1.83;;;17.80;99.90;;;;;;5014186;28;20208;-75
2021/10/21 07:40:11;;;;;;;3.22;1.83;;;17.90;99.90;;;;;;5031110;28;20158;-75
2021/10/21 07:42:42;;;;;;;2.92;1.58;;;18.10;99.90;;;;;;5013532;28;20206;-75
2021/10/21 07:45:09;;;;;;;2.03;1.83;;;18.20;99.90;;;;;;5013403;28;20170;-74
2021/10/21 07:47:36;;;;;;;3.33;1.90;;;18.40;99.90;;;;;;5013625;28;20177;-78
2021/10/21 07:50:05;;;;;;;2.45;1.92;;;18.60;99.90;;;;;;5031354;28;20181;-75
2021/10/21 07:52:31;;;;;;;4.93;2.45;;;19.00;99.90;;;;;;5013577;28;20178;-77
2021/10/21 07:54:57;;;;;;;1.80;1.58;;;19.20;99.90;;;;;;5049511;28;20235;-78
2021/10/21 07:57:23;;;;;;;4.70;1.88;;;19.10;99.90;;;;;;5049635;28;20196;-77
2021/10/21 07:59:49;;;;;;;6.13;2.00;;;19.10;99.90;;;;;;5049625;28;20189;-77
2021/10/21 08:02:16;;;;;;;2.78;2.05;;;19.30;99.90;;;;;;5056135;28;20216;-77
2021/10/21 08:04:43;;;;;;;4.03;1.67;;;19.80;99.90;;;;;;5068601;28;20164;-77
2021/10/21 08:07:09;;;;;;;4.28;1.98;;;21.00;99.90;;;;;;5049479;28;20161;-78
2021/10/21 08:09:35;;;;;;;2.40;1.63;;;23.00;99.40;;;;;;5055971;28;20244;-78
2021/10/21 08:12:04;;;;;;;3.25;1.50;;;22.60;99.90;;;;;;5069508;28;20200;-78
2021/10/21 08:14:30;;;;;;;1.70;1.60;;;23.00;99.90;;;;;;5069614;28;20164;-78
2021/10/21 08:16:58;;;;;;;2.55;2.17;;;23.00;99.90;;;;;;5069220;28;20165;-78
2021/10/21 08:19:27;;;;;;;1.88;1.77;;;22.80;99.40;;;;;;5054688;28;20191;-77
2021/10/21 08:21:54;;;;;;;3.05;1.25;;;21.60;99.90;;;;;;5050672;28;20247;-77
2021/10/21 08:24:22;;;;;;;4.45;2.00;;;21.70;99.90;;;;;;5050687;28;20161;-78
2021/10/21 08:26:55;;;;;;;2.13;1.70;;;21.90;99.90;;;;;;5049215;28;20193;-78
2021/10/21 08:29:22;;;;;;;1.65;1.55;;;22.60;99.80;;;;;;5050547;28;20596;-78
2021/10/21 08:31:52;;;;;;;1.60;1.00;;;22.20;99.90;;;;;;5049361;28;20228;-77
2021/10/21 08:34:19;;;;;;;2.63;1.92;;;22.40;99.90;;;;;;5050700;28;20233;-76
2021/10/21 08:36:44;;;;;;;1.63;1.52;;;22.50;99.40;;;;;;5067090;28;20172;-78
2021/10/21 08:39:11;;;;;;;1.98;1.70;;;23.30;99.90;;;;;;5069234;28;20275;-77
2021/10/21 08:41:38;;;;;;;3.60;2.03;;;24.20;98.70;;;;;;5068888;28;20600;-74
2021/10/21 08:44:04;;;;;;;2.53;1.67;;;25.40;96.70;;;;;;5068873;28;20687;-77
2021/10/21 08:46:31;;;;;;;3.38;1.90;;;26.00;98.30;;;;;;5069165;28;20172;-73
2021/10/21 08:48:59;;;;;;;2.00;1.63;;;25.00;95.20;;;;;;5070247;28;20216;-74
2021/10/21 08:51:27;;;;;;;1.90;1.60;;;24.60;95.80;;;;;;5068709;28;20287;-74
2021/10/21 08:53:53;;;;;;;2.20;1.98;;;24.80;98.80;;;;;;5058705;28;20303;-75
2021/10/21 08:56:23;;;;;;;2.60;1.50;;;24.20;96.50;;;;;;5050162;28;20168;-76
2021/10/21 08:58:52;;;;;;;1.73;1.50;;;23.40;99.00;;;;;;5032204;28;20161;-76
2021/10/21 09:01:21;;;;;;;2.08;1.52;;;23.30;99.90;;;;;;5031925;28;20201;-76
2021/10/21 09:04:04;;;;;;;2.42;1.88;;;23.20;98.90;;;;;;5049892;28;20263;-75
2021/10/21 09:06:47;;;;;;;3.33;1.63;;;22.80;99.40;;;;;;5049815;28;20149;-73
2021/10/21 09:09:20;;;;;;;3.83;2.20;;;23.40;99.50;;;;;;5053550;28;20183;-72
2021/10/21 09:12:06;;;;;;;2.22;1.77;;;23.30;99.40;;;;;;5069723;28;20230;-73
2021/10/21 09:14:42;;;;;;;1.65;1.45;;;23.20;99.80;;;;;;5069932;28;20172;-74
2021/10/21 09:17:10;;;;;;;1.83;1.50;;;23.60;98.60;;;;;;5069662;28;20172;-73
2021/10/21 09:19:37;;;;;;;1.60;1.25;;;24.80;96.50;;;;;;5051474;28;20194;-74
2021/10/21 09:22:06;;;;;;;1.27;1.17;;;25.10;96.50;;;;;;5069094;28;20230;-73
2021/10/21 09:24:39;;;;;;;1.98;1.40;;;25.50;96.00;;;;;;5069321;28;20161;-74
2021/10/21 09:27:11;;;;;;;2.47;1.50;;;24.50;96.70;;;;;;5051580;28;20617;-74
2021/10/21 09:29:43;;;;;;;1.98;1.45;;;25.30;96.50;;;;;;5069193;28;20171;-73
2021/10/21 09:32:18;;;;;;;2.00;0.98;;;24.20;98.10;;;;;;5069170;28;20226;-73
2021/10/21 09:34:58;;;;;;;3.53;1.40;;;25.20;96.10;;;;;;5069219;28;20178;-72
2021/10/21 09:37:25;;;;;;;5.63;1.10;;;25.80;96.20;;;;;;5040566;28;20169;-73
2021/10/21 09:39:54;;;;;;;1.73;1.35;;;26.20;95.60;;;;;;5031648;28;20188;-75
2021/10/21 09:42:43;;;;;;;2.53;1.10;;;26.50;94.80;;;;;;5049088;28;20239;-75
2021/10/21 09:45:33;;;;;;;1.27;1.17;;;25.80;96.50;;;;;;5049152;28;20180;-74
2021/10/21 09:48:00;;;;;;;2.03;1.10;;;26.10;95.50;;;;;;5048797;28;20186;-73
2021/10/21 09:50:36;;;;;;;1.75;1.20;;;25.40;95.90;;;;;;5030900;28;20161;-74
2021/10/21 09:53:23;;;;;;;2.90;1.20;;;25.00;95.30;;;;;;5035576;28;20217;-74
2021/10/21 09:56:04;;;;;;;2.28;1.20;;;24.60;95.80;;;;;;5068543;28;20186;-73
2021/10/21 09:58:33;;;;;;;1.30;0.90;;;25.30;96.60;;;;;;5069177;28;20224;-74
2021/10/21 10:01:08;;;;;;;1.00;0.90;;;26.00;94.70;;;;;;5068407;28;20194;-72
2021/10/21 10:03:36;;;;;;;2.20;1.10;;;26.60;95.10;;;;;;5068652;28;20183;-73
2021/10/21 10:06:02;;;;;;;1.92;1.02;;;27.50;94.00;;;;;;5068621;28;20148;-75
2021/10/21 10:08:30;;;;;;;1.73;0.95;;;28.40;94.50;;;;;;5067055;28;20187;-75
2021/10/21 10:10:58;;;;;;;1.33;0.73;;;28.90;93.10;;;;;;5086466;28;20183;-75
2021/10/21 10:13:27;;;;;;;2.08;1.20;;;28.60;92.80;;;;;;5087120;28;20172;-74
2021/10/21 10:15:55;;;;;;;2.40;0.90;;;28.30;94.60;;;;;;5087066;28;20175;-75
2021/10/21 10:18:29;;;;;;;2.25;1.10;;;28.50;92.40;;;;;;5088326;28;20168;-75
2021/10/21 10:21:07;;;;;;;0.85;0.80;;;27.90;93.10;;;;;;5088041;28;20240;-74
2021/10/21 10:23:35;;;;;;;1.63;0.82;;;27.50;93.70;;;;;;5088206;28;20190;-73
2021/10/21 10:26:01;;;;;;;1.50;0.90;;;26.00;94.00;;;;;;5086696;28;20174;-74
2021/10/21 10:28:52;;;;;;;1.00;0.90;;;26.20;93.90;;;;;;5086852;28;20197;-73
2021/10/21 10:31:48;;;;;;;2.80;1.13;;;26.00;95.80;;;;;;5088077;28;20183;-74
2021/10/21 10:34:32;;;;;;;2.72;0.60;;;26.50;93.40;;;;;;5074084;28;20201;-73
2021/10/21 10:37:13;;;;;;;0.93;0.60;;;26.20;94.20;;;;;;5088104;28;20219;-73
2021/10/21 10:39:49;;;;;;;1.40;0.82;;;25.80;94.20;;;;;;5088045;28;20216;-72
2021/10/21 10:42:17;;;;;;;1.58;0.50;;;24.20;95.50;;;;;;5087858;28;20208;-73
2021/10/21 10:44:49;;;;;;;0.90;0.73;;;23.40;96.60;;;;;;5087777;28;20163;-73
2021/10/21 10:47:40;;;;;;;0.40;0.40;;;24.30;95.70;;;;;;5086233;28;20179;-72
2021/10/21 10:50:07;;;;;;;2.58;0.80;;;23.30;97.10;;;;;;5087880;28;20185;-73
2021/10/21 10:52:55;;;;;;;1.17;0.82;;;22.20;97.90;;;;;;5087558;28;20199;-74
2021/10/21 10:55:23;;;;;;;0.50;0.50;;;21.80;98.50;;;;;;5067480;28;20194;-72
2021/10/21 10:57:49;;;;;;;1.48;0.50;;;21.50;98.30;;;;;;5067757;28;20168;-74
2021/10/21 11:00:37;;;;;;;0.68;0.50;;;21.40;99.10;;;;;;5066655;28;20164;-73
2021/10/21 11:03:07;;;;;;;0.50;0.50;;;21.50;98.80;;;;;;5067677;28;20230;-72
2021/10/21 11:05:43;;;;;;;0.47;0.45;;;21.70;99.10;;;;;;5017480;28;20264;-73
2021/10/21 11:08:10;;;;;;;1.17;0.70;;;22.70;98.60;;;;;;5033670;28;20176;-73
2021/10/21 11:10:39;;;;;;;0.57;0.30;;;23.90;97.60;;;;;;5062476;28;20195;-72
2021/10/21 11:13:24;;;;;;;1.40;0.50;;;24.90;95.40;;;;;;5049077;28;20165;-73
2021/10/21 11:15:52;;;;;;;0.60;0.47;;;25.10;95.20;;;;;;5067381;28;20640;-73
2021/10/21 11:18:23;;;;;;;2.63;0.60;;;24.50;95.60;;;;;;5049004;28;20198;-74
2021/10/21 11:20:49;;;;;;;0.80;0.57;;;24.60;95.60;;;;;;5067325;28;20191;-76
2021/10/21 11:23:27;;;;;;;0.50;0.45;;;24.90;94.80;;;;;;5067328;28;20195;-74
2021/10/21 11:26:02;;;;;;;0.73;0.50;;;24.90;95.60;;;;;;5067280;28;20161;-74
2021/10/21 11:28:30;;;;;;;0.80;0.57;;;25.30;94.90;;;;;;5067022;28;20159;-73
2021/10/21 11:30:57;;;;;;;0.75;0.40;;;24.10;95.60;;;;;;5067121;28;20305;-73
2021/10/21 11:33:26;;;;;;;1.15;0.52;;;23.30;97.30;;;;;;5051326;28;20193;-72
2021/10/21 11:35:53;;;;;;;0.70;0.40;;;22.70;96.80;;;;;;5047066;28;20283;-77
2021/10/21 11:38:20;;;;;;;0.40;0.38;;;22.00;98.20;;;;;;5029024;28;20227;-77
2021/10/21 11:40:50;;;;;;;0.60;0.30;;;21.50;98.80;;;;;;5029089;28;20204;-79
2021/10/21 11:43:24;;;;;;;0.43;0.43;;;22.00;97.60;;;;;;5029496;28;20239;-81
2021/10/21 11:45:55;;;;;;;0.47;0.40;;;22.60;97.90;;;;;;5029628;28;20175;-81
2021/10/21 11:48:28;;;;;;;0.30;0.28;;;23.00;97.00;;;;;;5047303;28;20165;-82
2021/10/21 11:50:54;;;;;;;2.70;0.40;;;23.00;97.30;;;;;;5029207;28;20203;-78
2021/10/21 11:53:22;;;;;;;0.30;0.30;;;22.60;97.30;;;;;;5038881;28;20220;-79
2021/10/21 11:55:52;;;;;;;0.17;0.17;;;22.50;97.10;;;;;;5067009;28;20164;-81
2021/10/21 11:58:26;;;;;;;2.80;0.43;;;22.30;97.70;;;;;;5063536;28;20211;-79
2021/10/21 12:00:57;;;;;;;1.13;0.50;;;21.90;98.00;;;;;;5061724;28;20213;-81
2021/10/21 12:03:39;;;;;;;0.60;0.50;;;21.50;98.30;;;;;;5065931;28;20413;-82
2021/10/21 12:06:07;;;;;;;2.20;0.22;;;22.00;98.40;;;;;;5045634;28;20541;-81
2021/10/21 12:08:33;;;;;;;0.77;0.30;;;22.60;97.90;;;;;;5045855;28;20192;-80
2021/10/21 12:11:02;;;;;;;0.95;0.50;;;22.30;98.30;;;;;;5048146;28;20154;-81
2021/10/21 12:13:32;;;;;;;0.38;0.20;;;22.10;98.40;;;;;;5050559;28;20157;-82
2021/10/21 12:16:00;;;;;;;1.20;0.35;;;21.90;98.80;;;;;;5050510;28;20164;-80
2021/10/21 12:18:30;;;;;;;0.20;0.20;;;21.20;98.70;;;;;;5049651;28;20204;-81
2021/10/21 12:21:03;;;;;;;0.55;0.50;;;20.90;99.30;;;;;;5050001;28;20176;-80
2021/10/21 12:23:31;;;;;;;0.40;0.30;;;20.70;98.70;;;;;;5050531;28;20185;-81
2021/10/21 12:26:00;;;;;;;3.90;0.40;;;20.60;99.60;;;;;;5050462;28;20153;-80
2021/10/21 12:29:08;;;;;;;0.45;0.20;;;20.40;99.80;;;;;;5047974;28;20208;-81
2021/10/21 12:31:37;;;;;;;0.10;0.10;;;20.30;99.80;;;;;;5041929;28;20185;-80
2021/10/21 12:34:20;;;;;;;4.32;0.30;;;20.30;99.50;;;;;;5049009;28;20196;-81
2021/10/21 12:36:48;;;;;;;0.22;0.20;;;20.30;99.70;;;;;;5048649;28;20165;-82
2021/10/21 12:39:24;;;;;;;0.20;0.20;;;20.20;99.60;;;;;;5049535;28;20150;-78
2021/10/21 12:42:01;;;;;;;0.93;0.20;;;20.20;99.90;;;;;;5048223;28;20207;-78
2021/10/21 12:44:33;;;;;;;0.60;0.40;;;20.10;99.90;;;;;;5048610;28;20176;-78
2021/10/21 12:47:17;;;;;;;0.80;0.40;;;20.10;99.90;;;;;;5056894;28;20224;-79
2021/10/21 12:50:00;;;;;;;1.02;0.63;;;20.20;99.90;;;;;;5059313;28;20169;-79
2021/10/21 12:52:36;;;;;;;0.30;0.20;;;20.20;99.90;;;;;;5056896;28;20183;-79